Time;durP1;ratioP1;P1;durP2;ratioP2;P2;SDS_P1;SDS_P2;PMS_P1;PMS_P2;Temp;Humidity;BMP_temperature;BMP_pressure;BME280_temperature;BME280_humidity;BME280_pressure;Samples;Min_cycle;Max_cycle;Signal;HPM_P1;HPM_P2
2021/11/20 00:01:39;;;;;;;1.42;0.47;;;22.70;41.10;;;;;;4949319;28;20230;-41
2021/11/20 00:04:10;;;;;;;1.88;0.50;;;22.70;41.00;;;;;;4943213;28;20221;-47
2021/11/20 00:06:43;;;;;;;2.90;0.70;;;22.80;41.10;;;;;;4937171;29;20207;-43
2021/11/20 00:09:16;;;;;;;1.30;0.52;;;22.80;41.10;;;;;;4951925;28;20722;-45
2021/11/20 00:11:48;;;;;;;2.92;0.52;;;22.80;41.00;;;;;;4949390;23;20737;-49
2021/11/20 00:14:20;;;;;;;1.70;0.60;;;22.80;41.00;;;;;;4934604;29;20253;-43
2021/11/20 00:16:55;;;;;;;1.08;0.70;;;22.90;41.00;;;;;;4930316;29;20748;-46
2021/11/20 00:19:27;;;;;;;4.57;1.02;;;22.90;41.00;;;;;;4922067;29;20203;-46
2021/11/20 00:22:00;;;;;;;3.28;0.80;;;22.90;40.90;;;;;;4917386;29;20223;-44
2021/11/20 00:24:34;;;;;;;2.20;1.00;;;22.90;40.90;;;;;;4934332;29;20275;-46
2021/11/20 00:27:05;;;;;;;3.80;0.95;;;23.00;41.00;;;;;;4932217;29;20263;-47
2021/11/20 00:29:47;;;;;;;1.08;0.82;;;23.00;41.10;;;;;;4923786;29;20211;-50
2021/11/20 00:32:26;;;;;;;2.55;0.85;;;23.00;41.00;;;;;;4928396;29;20242;-46
2021/11/20 00:35:00;;;;;;;5.05;0.90;;;23.10;41.00;;;;;;4932512;29;20223;-44
2021/11/20 00:37:31;;;;;;;3.35;0.98;;;23.10;41.00;;;;;;4931211;29;20668;-44
2021/11/20 00:40:02;;;;;;;2.88;0.90;;;23.20;41.10;;;;;;4932865;29;20223;-46
2021/11/20 00:42:33;;;;;;;3.75;1.40;;;23.20;41.00;;;;;;4933696;29;20207;-46
2021/11/20 00:45:03;;;;;;;2.92;0.90;;;23.20;41.00;;;;;;4932603;29;20303;-44
2021/11/20 00:47:36;;;;;;;4.30;0.98;;;23.30;41.00;;;;;;4932053;29;20203;-44
2021/11/20 00:50:07;;;;;;;4.90;1.15;;;23.30;41.00;;;;;;4924232;29;20204;-44
2021/11/20 00:52:38;;;;;;;3.72;1.13;;;23.30;41.00;;;;;;4924052;29;20203;-45
2021/11/20 00:55:11;;;;;;;4.15;1.02;;;23.30;40.90;;;;;;4932487;29;20220;-48
2021/11/20 00:57:42;;;;;;;2.38;0.90;;;23.40;41.00;;;;;;4932741;29;20228;-45
2021/11/20 01:00:15;;;;;;;5.00;1.40;;;23.40;40.90;;;;;;4933512;29;20227;-47
2021/11/20 01:02:47;;;;;;;2.08;0.90;;;23.40;40.80;;;;;;4930859;29;20255;-44
2021/11/20 01:05:19;;;;;;;4.30;0.70;;;23.50;40.90;;;;;;4929758;29;20235;-46
2021/11/20 01:07:50;;;;;;;3.97;0.85;;;23.50;40.90;;;;;;4925554;29;20204;-46
2021/11/20 01:10:23;;;;;;;3.45;1.17;;;23.50;40.90;;;;;;4923878;29;20208;-44
2021/11/20 01:12:54;;;;;;;2.85;1.20;;;23.50;40.90;;;;;;4930857;29;20286;-45
2021/11/20 01:15:29;;;;;;;3.15;0.80;;;23.60;40.90;;;;;;4927228;29;20216;-44
2021/11/20 01:18:02;;;;;;;3.45;0.80;;;23.60;40.90;;;;;;4932857;29;20203;-48
2021/11/20 01:20:33;;;;;;;3.25;0.88;;;23.70;40.90;;;;;;4931003;29;20227;-44
2021/11/20 01:23:04;;;;;;;3.30;0.95;;;23.70;40.90;;;;;;4931846;29;20211;-46
2021/11/20 01:25:35;;;;;;;2.92;0.85;;;23.70;40.80;;;;;;4931560;29;20223;-44
2021/11/20 01:28:07;;;;;;;2.25;0.90;;;23.80;40.90;;;;;;4928823;29;20208;-47
2021/11/20 01:30:38;;;;;;;2.28;1.05;;;23.80;40.80;;;;;;4919195;29;20250;-47
2021/11/20 01:33:10;;;;;;;2.75;0.70;;;23.80;40.80;;;;;;4917293;29;20196;-46
2021/11/20 01:35:41;;;;;;;1.98;0.90;;;23.80;40.70;;;;;;4931766;29;20215;-46
2021/11/20 01:38:12;;;;;;;1.20;0.68;;;23.90;40.70;;;;;;4931419;29;20207;-46
2021/11/20 01:40:44;;;;;;;2.72;0.80;;;23.90;40.70;;;;;;4931788;29;20298;-44
2021/11/20 01:43:15;;;;;;;2.33;0.85;;;23.90;40.60;;;;;;4931533;29;20270;-48
2021/11/20 01:45:52;;;;;;;1.85;0.80;;;24.00;40.60;;;;;;4929963;29;20219;-45
2021/11/20 01:48:50;;;;;;;2.00;1.10;;;24.00;40.50;;;;;;4931125;29;20251;-44
2021/11/20 01:51:25;;;;;;;2.55;1.00;;;24.00;40.50;;;;;;4931382;28;20200;-44
2021/11/20 01:54:04;;;;;;;1.35;0.65;;;24.00;40.50;;;;;;4932730;29;20616;-44
2021/11/20 01:56:41;;;;;;;2.15;0.90;;;24.10;40.50;;;;;;4931913;29;20200;-45
2021/11/20 01:59:19;;;;;;;2.03;0.85;;;24.10;40.50;;;;;;4931465;29;20255;-48
2021/11/20 02:01:53;;;;;;;2.15;0.63;;;24.10;40.50;;;;;;4930100;29;20290;-46
2021/11/20 02:04:33;;;;;;;2.65;0.93;;;24.20;40.60;;;;;;4930252;29;20715;-46
2021/11/20 02:07:12;;;;;;;2.60;0.90;;;24.20;40.50;;;;;;4929366;29;20263;-45
2021/11/20 02:09:49;;;;;;;2.13;1.00;;;24.20;40.50;;;;;;4930385;29;20195;-46
2021/11/20 02:12:23;;;;;;;1.70;0.57;;;24.30;40.50;;;;;;4930559;29;20195;-46
2021/11/20 02:14:55;;;;;;;1.60;0.98;;;24.30;40.50;;;;;;4930881;29;20270;-45
2021/11/20 02:17:28;;;;;;;1.65;0.85;;;24.30;40.50;;;;;;4931402;29;20604;-44
2021/11/20 02:20:07;;;;;;;2.25;0.90;;;24.30;40.30;;;;;;4930261;29;20204;-44
2021/11/20 02:22:36;;;;;;;2.35;1.00;;;24.40;40.40;;;;;;4930402;29;20707;-44
2021/11/20 02:25:05;;;;;;;1.40;0.63;;;24.50;40.40;;;;;;4931261;29;20223;-45
2021/11/20 02:27:39;;;;;;;1.58;0.85;;;24.50;40.40;;;;;;4930685;29;20652;-46
2021/11/20 02:30:24;;;;;;;2.92;0.90;;;24.50;40.40;;;;;;4931115;29;20204;-45
2021/11/20 02:32:57;;;;;;;2.50;0.70;;;24.50;40.30;;;;;;4930793;29;20208;-45
2021/11/20 02:35:30;;;;;;;1.48;0.68;;;24.60;40.30;;;;;;4931266;29;20216;-44
2021/11/20 02:38:02;;;;;;;1.48;0.80;;;24.60;40.40;;;;;;4931949;29;20203;-46
2021/11/20 02:40:33;;;;;;;1.20;0.75;;;24.70;40.50;;;;;;4917851;29;20216;-44
2021/11/20 02:43:04;;;;;;;1.75;0.70;;;24.70;40.50;;;;;;4927417;29;20215;-44
2021/11/20 02:45:38;;;;;;;1.63;0.70;;;24.70;40.50;;;;;;4930760;29;20223;-45
2021/11/20 02:48:10;;;;;;;2.15;0.73;;;24.80;40.40;;;;;;4919293;29;20660;-45
2021/11/20 02:50:43;;;;;;;1.27;0.60;;;24.80;40.30;;;;;;4923037;29;20211;-44
2021/11/20 02:53:15;;;;;;;1.05;0.70;;;24.90;40.30;;;;;;4914418;29;20661;-46
2021/11/20 02:55:47;;;;;;;2.00;0.90;;;24.90;40.30;;;;;;4931155;29;20223;-45
2021/11/20 02:58:19;;;;;;;1.48;0.77;;;24.90;40.20;;;;;;4929293;29;20254;-48
2021/11/20 03:00:55;;;;;;;2.30;1.00;;;25.00;40.10;;;;;;4930021;29;20626;-44
2021/11/20 03:03:26;;;;;;;2.42;0.93;;;25.00;40.20;;;;;;4929613;29;20199;-45
2021/11/20 03:05:56;;;;;;;1.00;0.70;;;25.10;40.10;;;;;;4927895;29;20283;-44
2021/11/20 03:08:27;;;;;;;2.15;0.63;;;25.10;40.00;;;;;;4917571;29;20212;-44
2021/11/20 03:10:58;;;;;;;2.90;0.85;;;25.10;40.00;;;;;;4930161;29;20259;-46
2021/11/20 03:13:29;;;;;;;1.50;0.60;;;25.20;40.00;;;;;;4931316;29;20207;-48
2021/11/20 03:16:01;;;;;;;1.80;0.70;;;25.20;40.00;;;;;;4928931;29;20227;-48
2021/11/20 03:18:32;;;;;;;2.05;0.90;;;25.30;40.00;;;;;;4930249;29;20203;-44
2021/11/20 03:21:02;;;;;;;1.67;0.95;;;25.30;39.80;;;;;;4930131;29;20842;-46
2021/11/20 03:23:35;;;;;;;3.45;0.93;;;25.30;39.80;;;;;;4929306;29;20290;-44
2021/11/20 03:26:05;;;;;;;2.90;0.90;;;25.40;40.00;;;;;;4916856;29;20223;-47
2021/11/20 03:28:36;;;;;;;1.42;0.68;;;25.40;40.10;;;;;;4931646;29;20251;-44
2021/11/20 03:31:09;;;;;;;2.40;0.63;;;25.50;40.20;;;;;;4917015;29;20665;-46
2021/11/20 03:33:40;;;;;;;1.85;0.63;;;25.50;40.20;;;;;;4928598;29;20212;-46
2021/11/20 03:36:11;;;;;;;2.97;0.88;;;25.60;40.20;;;;;;4929499;29;20615;-44
2021/11/20 03:38:41;;;;;;;3.63;0.63;;;25.60;40.00;;;;;;4925956;29;20201;-45
2021/11/20 03:41:13;;;;;;;2.38;0.80;;;25.70;40.00;;;;;;4920928;29;20227;-48
2021/11/20 03:43:45;;;;;;;2.25;0.57;;;25.70;39.40;;;;;;4919781;29;20199;-46
2021/11/20 03:46:18;;;;;;;2.20;0.95;;;25.70;39.10;;;;;;4923311;29;20205;-48
2021/11/20 03:48:48;;;;;;;3.42;0.73;;;25.80;39.00;;;;;;4933559;29;20207;-44
2021/11/20 03:51:20;;;;;;;1.05;0.60;;;25.80;38.90;;;;;;4932905;29;20274;-47
2021/11/20 03:53:51;;;;;;;2.40;0.60;;;25.80;38.80;;;;;;4932984;29;20667;-46
2021/11/20 03:56:22;;;;;;;1.60;0.68;;;25.90;38.70;;;;;;4931058;29;20279;-49
2021/11/20 03:58:52;;;;;;;3.15;0.75;;;25.90;38.70;;;;;;4933719;29;20200;-46
2021/11/20 04:01:27;;;;;;;2.10;0.60;;;26.00;38.70;;;;;;4933557;29;20223;-44
2021/11/20 04:03:59;;;;;;;1.27;0.70;;;26.00;38.60;;;;;;4917769;29;20192;-46
2021/11/20 04:06:30;;;;;;;1.42;0.50;;;26.10;38.70;;;;;;4932149;29;20302;-45
2021/11/20 04:09:01;;;;;;;1.55;0.50;;;26.10;38.60;;;;;;4933198;29;20208;-46
2021/11/20 04:11:34;;;;;;;1.20;0.57;;;26.10;38.60;;;;;;4928471;29;20271;-45
2021/11/20 04:14:05;;;;;;;1.33;0.70;;;26.20;38.70;;;;;;4922146;29;20588;-45
2021/11/20 04:16:38;;;;;;;1.83;0.50;;;26.20;38.70;;;;;;4921108;29;20200;-48
2021/11/20 04:19:09;;;;;;;0.93;0.60;;;26.20;38.70;;;;;;4926628;29;20225;-45
2021/11/20 04:21:40;;;;;;;0.70;0.43;;;26.30;39.00;;;;;;4931195;29;20590;-49
2021/11/20 04:24:13;;;;;;;2.60;0.60;;;26.30;39.00;;;;;;4930797;29;20700;-49
2021/11/20 04:26:44;;;;;;;2.22;0.50;;;26.30;39.00;;;;;;4932184;29;20519;-44
2021/11/20 04:29:15;;;;;;;1.13;0.40;;;26.40;39.00;;;;;;4930346;29;20214;-48
2021/11/20 04:31:50;;;;;;;1.58;0.47;;;26.40;39.00;;;;;;4930162;29;20258;-49
2021/11/20 04:34:23;;;;;;;1.23;0.50;;;26.40;39.00;;;;;;4930150;29;20226;-48
2021/11/20 04:36:54;;;;;;;0.88;0.43;;;26.50;39.00;;;;;;4931561;29;20203;-47
2021/11/20 04:39:25;;;;;;;2.10;0.57;;;26.50;38.90;;;;;;4931285;29;20203;-50
2021/11/20 04:41:55;;;;;;;1.67;0.60;;;26.50;38.80;;;;;;4931480;29;20294;-46
2021/11/20 04:44:26;;;;;;;0.43;0.32;;;26.50;38.80;;;;;;4930954;29;20231;-51
2021/11/20 04:46:58;;;;;;;1.63;0.43;;;26.50;38.80;;;;;;4929512;29;20204;-48
2021/11/20 04:49:29;;;;;;;2.30;0.50;;;26.50;38.70;;;;;;4929796;29;20249;-47
2021/11/20 04:52:00;;;;;;;0.63;0.40;;;26.50;38.60;;;;;;4928844;29;20211;-48
2021/11/20 04:54:31;;;;;;;2.78;0.80;;;26.50;38.40;;;;;;4931788;29;20223;-49
2021/11/20 04:57:01;;;;;;;3.90;0.90;;;26.50;38.30;;;;;;4929584;29;20664;-48
2021/11/20 04:59:32;;;;;;;1.25;0.50;;;26.50;38.20;;;;;;4930952;29;20665;-47
2021/11/20 05:02:04;;;;;;;2.28;0.50;;;26.50;38.20;;;;;;4930817;29;20219;-52
2021/11/20 05:04:35;;;;;;;1.30;0.50;;;26.50;38.20;;;;;;4927468;29;20232;-48
2021/11/20 05:07:06;;;;;;;1.65;0.60;;;26.50;38.30;;;;;;4929335;29;20208;-47
2021/11/20 05:09:36;;;;;;;3.60;0.50;;;26.50;38.50;;;;;;4930783;29;20196;-47
2021/11/20 05:12:08;;;;;;;1.35;0.50;;;26.60;38.60;;;;;;4931444;29;20271;-47
2021/11/20 05:14:39;;;;;;;0.60;0.40;;;26.50;38.60;;;;;;4930225;29;20238;-47
2021/11/20 05:17:11;;;;;;;1.40;0.60;;;26.50;38.70;;;;;;4928896;29;20318;-48
2021/11/20 05:19:42;;;;;;;1.13;0.47;;;26.50;38.70;;;;;;4931118;29;20204;-48
2021/11/20 05:22:13;;;;;;;1.52;0.47;;;26.60;38.80;;;;;;4930173;29;20234;-47
2021/11/20 05:24:45;;;;;;;2.17;0.73;;;26.60;38.80;;;;;;4930817;29;20224;-52
2021/11/20 05:27:16;;;;;;;2.25;0.80;;;26.60;38.80;;;;;;4930793;29;20204;-47
2021/11/20 05:29:52;;;;;;;0.77;0.40;;;26.50;38.80;;;;;;4928683;29;20580;-47
2021/11/20 05:32:25;;;;;;;2.65;0.57;;;26.60;38.80;;;;;;4930374;29;20262;-48
2021/11/20 05:34:56;;;;;;;0.82;0.40;;;26.60;38.70;;;;;;4929759;29;20731;-46
2021/11/20 05:37:26;;;;;;;1.50;0.52;;;26.60;38.60;;;;;;4929644;29;20204;-47
2021/11/20 05:39:58;;;;;;;1.13;0.50;;;26.50;38.40;;;;;;4926534;29;20258;-45
2021/11/20 05:42:29;;;;;;;1.40;0.70;;;26.60;38.50;;;;;;4930942;29;20227;-46
2021/11/20 05:45:00;;;;;;;1.67;0.60;;;26.60;38.40;;;;;;4930782;29;20274;-45
2021/11/20 05:47:32;;;;;;;4.55;0.90;;;26.50;38.40;;;;;;4930012;29;20207;-46
2021/11/20 05:50:03;;;;;;;1.33;0.68;;;26.50;38.30;;;;;;4928410;29;20207;-47
2021/11/20 05:52:33;;;;;;;2.80;0.70;;;26.50;38.40;;;;;;4930033;29;20196;-45
2021/11/20 05:55:05;;;;;;;1.77;0.50;;;26.50;38.30;;;;;;4929325;29;20314;-48
2021/11/20 05:57:36;;;;;;;1.85;0.73;;;26.50;38.40;;;;;;4930185;29;20570;-45
2021/11/20 06:00:12;;;;;;;3.55;0.80;;;26.50;38.50;;;;;;4930224;29;20660;-45
2021/11/20 06:02:44;;;;;;;1.85;0.57;;;26.50;38.70;;;;;;4930419;29;20241;-45
2021/11/20 06:05:15;;;;;;;4.32;0.80;;;26.50;38.70;;;;;;4929764;29;20227;-46
2021/11/20 06:07:46;;;;;;;1.85;0.80;;;26.50;38.80;;;;;;4929460;29;20211;-45
2021/11/20 06:10:17;;;;;;;2.45;0.60;;;26.50;38.90;;;;;;4927597;29;20635;-45
2021/11/20 06:12:47;;;;;;;1.52;0.80;;;26.50;38.90;;;;;;4924976;29;20204;-49
2021/11/20 06:15:18;;;;;;;1.48;0.52;;;26.50;39.00;;;;;;4930122;29;20283;-45
2021/11/20 06:17:50;;;;;;;1.38;0.68;;;26.50;39.10;;;;;;4930435;29;20644;-47
2021/11/20 06:20:21;;;;;;;1.20;0.60;;;26.50;39.10;;;;;;4930855;29;20208;-48
2021/11/20 06:22:52;;;;;;;1.63;0.60;;;26.50;39.10;;;;;;4929062;29;20223;-46
2021/11/20 06:25:24;;;;;;;2.05;0.63;;;26.50;39.10;;;;;;4928931;29;20223;-45
2021/11/20 06:27:54;;;;;;;0.98;0.57;;;26.50;39.00;;;;;;4929435;29;20657;-44
2021/11/20 06:30:28;;;;;;;4.47;0.75;;;26.40;38.90;;;;;;4929582;29;20648;-48
2021/11/20 06:33:01;;;;;;;1.63;0.80;;;26.40;39.00;;;;;;4930189;29;20196;-47
2021/11/20 06:35:34;;;;;;;1.10;0.60;;;26.40;39.00;;;;;;4929951;29;20290;-47
2021/11/20 06:38:05;;;;;;;1.20;0.60;;;26.40;39.00;;;;;;4929460;29;20279;-46
2021/11/20 06:40:38;;;;;;;2.22;0.63;;;26.40;39.10;;;;;;4929018;29;20207;-47
2021/11/20 06:43:09;;;;;;;2.00;0.68;;;26.40;39.10;;;;;;4925416;29;20223;-49
2021/11/20 06:45:42;;;;;;;2.10;0.60;;;26.30;39.10;;;;;;4928170;29;20279;-45
2021/11/20 06:48:16;;;;;;;1.08;0.47;;;26.30;39.20;;;;;;4928532;29;20199;-48
2021/11/20 06:50:47;;;;;;;1.42;0.60;;;26.40;39.30;;;;;;4929638;29;20632;-48
2021/11/20 06:53:20;;;;;;;1.73;0.50;;;26.30;39.20;;;;;;4929496;29;20223;-46
2021/11/20 06:55:50;;;;;;;0.50;0.47;;;26.30;39.30;;;;;;4929846;29;20941;-44
2021/11/20 07:01:11;;;;;;;1.33;0.60;;;26.30;39.40;;;;;;4929050;29;20203;-45
2021/11/20 07:03:48;;;;;;;2.13;0.60;;;26.30;39.40;;;;;;4928484;29;20238;-45
2021/11/20 07:06:21;;;;;;;0.82;0.60;;;26.30;39.50;;;;;;4928057;29;20207;-52
2021/11/20 07:08:55;;;;;;;1.73;0.73;;;26.20;39.30;;;;;;4929163;29;20260;-48
2021/11/20 07:11:26;;;;;;;3.28;0.90;;;26.20;39.30;;;;;;4929740;29;20283;-52
2021/11/20 07:13:57;;;;;;;2.83;0.80;;;26.20;39.40;;;;;;4925897;29;20262;-47
2021/11/20 07:16:29;;;;;;;4.03;0.93;;;26.20;39.20;;;;;;4932412;29;20203;-48
2021/11/20 07:19:02;;;;;;;3.97;0.90;;;26.20;39.20;;;;;;4932409;29;20211;-48
2021/11/20 07:21:33;;;;;;;4.78;1.00;;;26.20;39.20;;;;;;4932303;29;20644;-46
2021/11/20 07:24:07;;;;;;;2.38;1.00;;;26.10;39.20;;;;;;4931455;29;20231;-50
2021/11/20 07:26:38;;;;;;;2.85;0.70;;;26.10;39.20;;;;;;4932021;29;20611;-48
2021/11/20 07:29:09;;;;;;;2.72;1.10;;;26.10;39.20;;;;;;4933020;29;20207;-47
2021/11/20 07:31:40;;;;;;;2.40;0.85;;;26.10;39.30;;;;;;4933877;29;20266;-47
2021/11/20 07:34:12;;;;;;;1.63;0.80;;;26.00;39.20;;;;;;4931987;29;20756;-46
2021/11/20 07:36:44;;;;;;;1.27;0.70;;;26.00;39.30;;;;;;4931969;29;20200;-46
2021/11/20 07:39:16;;;;;;;2.05;0.65;;;26.00;39.30;;;;;;4932096;29;20552;-47
2021/11/20 07:41:47;;;;;;;2.78;0.80;;;26.00;39.20;;;;;;4932405;29;20200;-50
2021/11/20 07:44:18;;;;;;;5.78;1.15;;;25.90;39.20;;;;;;4928787;29;20219;-48
2021/11/20 07:46:48;;;;;;;11.70;2.30;;;26.00;39.30;;;;;;4931108;29;20196;-50
2021/11/20 07:49:21;;;;;;;8.73;1.27;;;25.90;38.40;;;;;;4932873;29;20204;-47
2021/11/20 07:51:51;;;;;;;14.75;2.20;;;25.90;38.20;;;;;;4931267;29;20735;-48
2021/11/20 07:54:22;;;;;;;15.57;2.10;;;25.80;38.00;;;;;;4931675;29;20230;-49
2021/11/20 07:56:53;;;;;;;11.95;2.10;;;25.80;37.90;;;;;;4932218;29;20603;-49
2021/11/20 07:59:24;;;;;;;14.70;2.22;;;25.80;37.80;;;;;;4932456;29;20299;-51
2021/11/20 08:01:55;;;;;;;13.35;2.25;;;25.70;37.70;;;;;;4932563;29;20200;-48
2021/11/20 08:04:27;;;;;;;15.10;2.50;;;25.70;37.80;;;;;;4931522;29;20287;-52
2021/11/20 08:06:58;;;;;;;12.40;2.47;;;25.70;37.80;;;;;;4931304;29;20668;-49
2021/11/20 08:09:28;;;;;;;10.18;1.98;;;25.70;37.90;;;;;;4930522;29;20248;-46
2021/11/20 08:11:59;;;;;;;12.00;1.77;;;25.60;37.90;;;;;;4931821;29;20618;-49
2021/11/20 08:14:30;;;;;;;9.00;2.00;;;25.60;37.90;;;;;;4931494;29;20699;-51
2021/11/20 08:17:00;;;;;;;9.80;1.70;;;25.50;38.00;;;;;;4921940;29;20267;-50
2021/11/20 08:19:33;;;;;;;11.43;1.90;;;25.60;38.10;;;;;;4931639;29;20204;-50
2021/11/20 08:22:04;;;;;;;7.75;1.65;;;25.50;38.20;;;;;;4932953;29;20449;-49
2021/11/20 08:24:34;;;;;;;8.90;1.63;;;25.50;38.20;;;;;;4930642;29;20271;-46
2021/11/20 08:27:07;;;;;;;7.38;1.90;;;25.50;38.30;;;;;;4932531;29;20203;-51
2021/11/20 08:29:39;;;;;;;8.85;1.60;;;25.40;38.30;;;;;;4931125;29;20204;-50
2021/11/20 08:32:11;;;;;;;9.65;1.42;;;25.40;38.40;;;;;;4930250;29;20212;-47
2021/11/20 08:34:45;;;;;;;9.77;1.70;;;25.40;38.40;;;;;;4931516;29;20235;-49
2021/11/20 08:37:16;;;;;;;7.50;1.50;;;25.40;38.40;;;;;;4931882;29;20207;-53
2021/11/20 08:39:46;;;;;;;9.68;1.63;;;25.40;38.50;;;;;;4931828;29;20200;-50
2021/11/20 08:42:17;;;;;;;8.23;1.83;;;25.30;38.40;;;;;;4931162;29;20222;-48
2021/11/20 08:44:48;;;;;;;13.98;2.50;;;25.30;38.50;;;;;;4930976;29;20219;-51
2021/11/20 08:47:18;;;;;;;7.47;1.58;;;25.30;38.50;;;;;;4926334;29;20203;-51
2021/11/20 08:49:51;;;;;;;12.57;2.20;;;25.30;38.50;;;;;;4930598;29;20203;-50
2021/11/20 08:52:21;;;;;;;8.18;1.40;;;25.30;38.50;;;;;;4931813;29;20195;-49
2021/11/20 08:54:56;;;;;;;6.38;1.65;;;25.20;38.40;;;;;;4932364;29;20275;-49
2021/11/20 08:57:27;;;;;;;10.70;1.92;;;25.30;38.50;;;;;;4930798;29;20218;-47
2021/11/20 08:59:58;;;;;;;6.65;1.75;;;25.20;38.50;;;;;;4930358;29;20247;-47
2021/11/20 09:02:30;;;;;;;7.10;1.60;;;25.20;38.40;;;;;;4929963;29;20251;-49
2021/11/20 09:05:10;;;;;;;10.43;1.60;;;25.10;38.40;;;;;;4930536;29;20275;-50
2021/11/20 09:07:44;;;;;;;9.13;1.67;;;25.10;38.40;;;;;;4930478;29;20208;-47
2021/11/20 09:10:18;;;;;;;10.52;2.17;;;25.10;38.50;;;;;;4930687;29;20207;-49
2021/11/20 09:12:52;;;;;;;10.90;1.77;;;25.10;38.60;;;;;;4931250;29;20259;-52
2021/11/20 09:15:27;;;;;;;5.78;1.33;;;25.10;38.70;;;;;;4931132;29;20263;-50
2021/11/20 09:17:58;;;;;;;7.28;1.77;;;25.10;38.70;;;;;;4926697;29;20266;-50
2021/11/20 09:20:32;;;;;;;5.13;1.42;;;25.00;38.70;;;;;;4929688;29;20196;-52
2021/11/20 09:23:02;;;;;;;6.07;1.85;;;25.00;38.70;;;;;;4930266;29;20275;-48
2021/11/20 09:25:33;;;;;;;5.07;1.48;;;25.00;38.70;;;;;;4930936;29;20282;-49
2021/11/20 09:28:09;;;;;;;8.60;1.40;;;25.00;39.40;;;;;;4930859;29;20196;-49
2021/11/20 09:30:42;;;;;;;7.72;1.50;;;25.00;38.80;;;;;;4931881;29;20200;-51
2021/11/20 09:33:13;;;;;;;6.93;1.48;;;25.00;38.90;;;;;;4930176;29;20610;-50
2021/11/20 09:35:46;;;;;;;8.25;1.52;;;24.90;38.90;;;;;;4930030;29;20223;-48
2021/11/20 09:38:18;;;;;;;8.52;1.42;;;24.90;38.80;;;;;;4929625;29;20274;-49
2021/11/20 09:40:51;;;;;;;4.55;1.10;;;24.90;38.80;;;;;;4929668;29;20281;-49
2021/11/20 09:43:26;;;;;;;5.10;1.52;;;24.90;38.80;;;;;;4928933;29;20773;-47
2021/11/20 09:46:04;;;;;;;5.05;1.35;;;24.90;38.80;;;;;;4929879;29;20223;-50
2021/11/20 09:48:39;;;;;;;5.35;1.38;;;24.90;38.80;;;;;;4931358;29;20223;-48
2021/11/20 09:51:26;;;;;;;7.00;1.30;;;24.80;38.80;;;;;;4927289;29;20199;-47
2021/11/20 09:53:58;;;;;;;5.10;1.20;;;24.80;38.90;;;;;;4930469;29;20204;-49
2021/11/20 09:56:31;;;;;;;4.45;1.27;;;24.80;38.90;;;;;;4929936;29;20687;-48
2021/11/20 09:59:07;;;;;;;4.55;1.13;;;24.80;38.90;;;;;;4929629;29;20211;-47
2021/11/20 10:01:49;;;;;;;5.47;1.52;;;24.70;38.90;;;;;;4929864;29;20250;-49
2021/11/20 10:04:26;;;;;;;3.72;1.00;;;24.70;39.00;;;;;;4929823;29;20774;-48
2021/11/20 10:07:18;;;;;;;5.05;1.20;;;24.70;39.10;;;;;;4929554;29;20259;-47
2021/11/20 10:09:52;;;;;;;5.38;1.48;;;24.70;39.10;;;;;;4929415;29;20231;-48
2021/11/20 10:12:29;;;;;;;6.10;1.13;;;24.70;39.10;;;;;;4930073;29;20254;-46
2021/11/20 10:15:02;;;;;;;3.13;0.90;;;24.70;39.10;;;;;;4929667;29;20666;-50
2021/11/20 10:17:37;;;;;;;3.72;0.90;;;24.60;39.10;;;;;;4929922;29;20299;-47
2021/11/20 10:20:32;;;;;;;3.15;1.00;;;24.60;39.20;;;;;;4929908;29;20199;-47
2021/11/20 10:23:15;;;;;;;2.10;0.93;;;24.60;39.20;;;;;;4928520;29;20600;-48
2021/11/20 10:26:15;;;;;;;2.75;0.93;;;24.60;39.20;;;;;;4929384;29;20710;-47
2021/11/20 10:29:02;;;;;;;3.70;1.15;;;24.50;39.20;;;;;;4895999;29;20262;-46
2021/11/20 10:31:37;;;;;;;4.38;0.88;;;24.60;39.20;;;;;;4928473;29;20302;-46
2021/11/20 10:34:25;;;;;;;4.28;0.98;;;24.50;39.20;;;;;;4929078;29;20233;-48
2021/11/20 10:37:00;;;;;;;4.03;0.90;;;24.50;39.30;;;;;;4929365;29;20196;-48
2021/11/20 10:39:40;;;;;;;2.88;1.05;;;24.50;39.30;;;;;;4929562;29;20667;-48
2021/11/20 10:42:16;;;;;;;4.32;1.30;;;24.50;39.40;;;;;;4929558;29;20207;-50
2021/11/20 10:44:51;;;;;;;5.60;1.20;;;24.40;39.40;;;;;;4929551;29;20277;-48
2021/11/20 10:47:39;;;;;;;3.53;0.88;;;24.40;39.40;;;;;;4930075;29;20243;-49
2021/11/20 10:50:28;;;;;;;3.70;0.93;;;24.30;39.30;;;;;;4930169;29;20647;-47
2021/11/20 10:53:36;;;;;;;3.25;1.40;;;24.30;39.40;;;;;;4924535;29;20203;-47
2021/11/20 10:56:25;;;;;;;2.88;1.00;;;24.30;39.40;;;;;;4912817;29;20723;-47
2021/11/20 10:59:28;;;;;;;3.97;1.20;;;24.30;39.40;;;;;;4928292;29;20208;-49
2021/11/20 11:02:27;;;;;;;5.93;1.20;;;24.30;39.50;;;;;;4895588;29;20203;-49
2021/11/20 11:05:41;;;;;;;5.32;1.60;;;24.30;39.50;;;;;;4928747;29;20307;-51
2021/11/20 11:08:23;;;;;;;5.90;1.50;;;24.20;39.60;;;;;;4850539;29;20253;-48
2021/11/20 11:10:57;;;;;;;3.97;1.30;;;24.20;39.60;;;;;;4928284;29;20274;-48
2021/11/20 11:13:48;;;;;;;3.80;1.27;;;24.20;39.60;;;;;;4928011;29;20218;-48
2021/11/20 11:16:23;;;;;;;4.80;1.33;;;24.20;39.70;;;;;;4928541;29;20243;-47
2021/11/20 11:18:57;;;;;;;3.17;1.10;;;24.20;39.70;;;;;;4928626;29;20210;-46
2021/11/20 11:21:54;;;;;;;4.70;1.48;;;24.10;39.70;;;;;;4926995;29;20204;-49
2021/11/20 11:25:01;;;;;;;4.35;1.40;;;24.10;39.80;;;;;;4921057;29;20315;-45
2021/11/20 11:27:38;;;;;;;5.45;1.60;;;24.00;39.70;;;;;;4907326;29;20203;-47
2021/11/20 11:30:13;;;;;;;4.65;1.63;;;24.00;39.80;;;;;;4929350;29;20203;-47
2021/11/20 11:32:46;;;;;;;4.30;1.40;;;24.00;39.80;;;;;;4929035;29;20200;-47
2021/11/20 11:35:26;;;;;;;4.15;1.27;;;24.00;39.80;;;;;;4928736;29;20231;-46
2021/11/20 11:38:47;;;;;;;2.80;1.50;;;24.00;39.90;;;;;;4929594;29;20566;-50
2021/11/20 11:41:24;;;;;;;4.25;1.42;;;24.00;40.00;;;;;;4889209;29;20193;-47
2021/11/20 11:44:06;;;;;;;3.83;1.20;;;24.00;39.90;;;;;;4922315;29;20644;-46
2021/11/20 11:46:54;;;;;;;3.75;1.40;;;23.90;39.90;;;;;;4929093;29;20192;-49
2021/11/20 11:49:49;;;;;;;2.90;1.30;;;23.90;39.90;;;;;;4928693;29;20215;-48
2021/11/20 11:52:45;;;;;;;2.95;1.42;;;23.90;40.00;;;;;;4928709;29;20200;-47
2021/11/20 11:55:43;;;;;;;2.83;1.27;;;23.90;40.00;;;;;;4925717;29;20318;-46
2021/11/20 11:58:37;;;;;;;4.15;1.42;;;23.80;40.10;;;;;;4928985;29;20233;-45
2021/11/20 12:01:12;;;;;;;2.15;1.08;;;23.80;40.10;;;;;;4930349;29;20202;-46
2021/11/20 12:03:46;;;;;;;4.88;0.93;;;23.80;40.10;;;;;;4930032;29;20227;-47
2021/11/20 12:06:20;;;;;;;3.63;1.33;;;23.70;40.10;;;;;;4932201;29;20200;-48
2021/11/20 12:08:53;;;;;;;2.38;1.20;;;23.70;40.10;;;;;;4932280;29;20211;-48
2021/11/20 12:11:37;;;;;;;2.78;1.20;;;23.70;40.50;;;;;;4930615;29;20207;-47
2021/11/20 12:14:19;;;;;;;1.67;0.85;;;23.70;40.30;;;;;;4932914;29;20759;-45
2021/11/20 12:16:58;;;;;;;2.72;1.30;;;23.60;40.30;;;;;;4932657;29;20274;-47
2021/11/20 12:19:39;;;;;;;3.75;1.20;;;23.70;40.20;;;;;;4931869;29;20570;-49
2021/11/20 12:22:21;;;;;;;3.70;1.35;;;23.60;40.20;;;;;;4932148;29;20204;-45
2021/11/20 12:24:56;;;;;;;3.33;1.35;;;23.60;40.30;;;;;;4931789;29;20323;-46
2021/11/20 12:27:39;;;;;;;2.80;1.48;;;23.60;40.30;;;;;;4927124;29;20262;-45
2021/11/20 12:30:45;;;;;;;2.40;1.10;;;23.50;40.30;;;;;;4931595;29;20255;-46
2021/11/20 12:33:39;;;;;;;2.33;1.10;;;23.50;40.30;;;;;;4930676;29;20563;-45
2021/11/20 12:36:40;;;;;;;2.67;1.00;;;23.50;40.30;;;;;;4924401;29;20231;-46
2021/11/20 12:39:30;;;;;;;3.85;1.30;;;23.50;40.30;;;;;;4931709;29;20206;-46
2021/11/20 12:42:16;;;;;;;4.85;1.30;;;23.50;40.40;;;;;;4931071;29;20208;-49
2021/11/20 12:45:20;;;;;;;1.92;1.10;;;23.40;40.40;;;;;;4931775;29;20227;-47
2021/11/20 12:48:47;;;;;;;2.53;1.45;;;23.40;40.40;;;;;;4897690;29;20278;-45
2021/11/20 12:51:29;;;;;;;2.38;1.15;;;23.40;40.40;;;;;;4872948;29;20658;-50
2021/11/20 12:54:02;;;;;;;3.05;1.50;;;23.30;40.40;;;;;;4923059;29;20914;-47
2021/11/20 12:56:41;;;;;;;2.95;1.63;;;23.30;40.40;;;;;;4929878;29;20255;-45
2021/11/20 12:59:23;;;;;;;3.45;1.60;;;23.30;40.40;;;;;;4931060;29;20672;-48
2021/11/20 13:02:01;;;;;;;2.65;1.23;;;23.30;40.50;;;;;;4931817;29;20263;-46
2021/11/20 13:04:46;;;;;;;3.35;1.35;;;23.30;40.40;;;;;;4930550;29;20634;-46
2021/11/20 13:07:19;;;;;;;2.90;1.45;;;23.30;40.40;;;;;;4931915;29;20660;-48
2021/11/20 13:09:56;;;;;;;3.42;1.33;;;23.30;40.40;;;;;;4930766;29;20203;-46
2021/11/20 13:12:35;;;;;;;3.10;1.45;;;23.30;40.50;;;;;;4929133;29;20618;-48
2021/11/20 13:15:40;;;;;;;4.40;1.52;;;23.20;40.40;;;;;;4931069;29;20306;-49
2021/11/20 13:18:20;;;;;;;2.00;1.25;;;23.20;40.40;;;;;;4899558;29;20270;-46
2021/11/20 13:21:01;;;;;;;3.15;1.10;;;23.20;40.40;;;;;;4930941;29;20207;-46
2021/11/20 13:23:33;;;;;;;2.50;1.30;;;23.20;40.30;;;;;;4930538;29;20200;-45
2021/11/20 13:26:37;;;;;;;2.67;1.60;;;23.20;40.30;;;;;;4930593;29;20282;-48
2021/11/20 13:29:10;;;;;;;3.25;1.30;;;23.10;40.30;;;;;;4903225;29;20199;-48
2021/11/20 13:31:42;;;;;;;2.78;1.10;;;23.10;40.30;;;;;;4930821;29;20260;-47